Time;durP1;ratioP1;P1;durP2;ratioP2;P2;SDS_P1;SDS_P2;PMS_P1;PMS_P2;Temp;Humidity;BMP_temperature;BMP_pressure;BME280_temperature;BME280_humidity;BME280_pressure;Samples;Min_cycle;Max_cycle;Signal;HPM_P1;HPM_P2
2021/09/29 00:00:10;;;;;;;7.88;2.17;;;;;;;;;;5046016;28;20114;-60
2021/09/29 00:02:38;;;;;;;10.05;2.47;;;;;;;;;;5051960;28;20091;-64
2021/09/29 00:05:05;;;;;;;8.57;2.33;;;;;;;;;;5064809;28;20117;-64
2021/09/29 00:07:33;;;;;;;7.15;2.30;;;;;;;;;;5061349;28;20025;-62
2021/09/29 00:09:59;;;;;;;12.68;2.90;;;;;;;;;;5051200;28;20063;-64
2021/09/29 00:12:32;;;;;;;6.38;2.50;;;;;;;;;;5041179;28;20037;-64
2021/09/29 00:14:59;;;;;;;17.52;2.85;;;;;;;;;;5057075;28;20129;-58
2021/09/29 00:17:25;;;;;;;7.28;2.03;;;;;;;;;;5040512;28;20060;-64
2021/09/29 00:19:52;;;;;;;6.05;2.17;;;;;;;;;;5044293;28;20053;-64
2021/09/29 00:22:19;;;;;;;8.80;2.30;;;;;;;;;;5042966;28;20053;-60
2021/09/29 00:24:46;;;;;;;5.78;2.47;;;;;;;;;;5045210;28;20115;-65
2021/09/29 00:27:13;;;;;;;7.87;2.53;;;;;;;;;;5039162;28;20038;-63
2021/09/29 00:29:40;;;;;;;9.73;2.55;;;;;;;;;;5060315;28;20282;-63
2021/09/29 00:32:09;;;;;;;10.95;2.90;;;;;;;;;;5046211;28;20123;-62
2021/09/29 00:34:39;;;;;;;10.60;2.20;;;;;;;;;;5056972;28;20131;-61
2021/09/29 00:37:06;;;;;;;10.20;2.35;;;;;;;;;;5045177;28;20033;-58
2021/09/29 00:39:32;;;;;;;8.68;2.40;;;;;;;;;;5041524;28;20033;-61
2021/09/29 00:42:03;;;;;;;9.02;2.70;;;;;;;;;;5053101;28;20056;-60
2021/09/29 00:44:30;;;;;;;7.80;2.80;;;;;;;;;;5073819;28;20051;-62
2021/09/29 00:46:56;;;;;;;11.40;2.55;;;;;;;;;;5043361;28;20045;-62
2021/09/29 00:49:23;;;;;;;8.75;2.60;;;;;;;;;;5039893;28;20053;-63
2021/09/29 00:51:51;;;;;;;8.85;2.72;;;;;;;;;;5043428;28;20033;-62
2021/09/29 00:54:18;;;;;;;7.63;2.90;;;;;;;;;;5030500;28;20050;-63
2021/09/29 00:56:46;;;;;;;9.38;2.75;;;;;;;;;;5025130;28;20033;-63
2021/09/29 00:59:14;;;;;;;8.98;2.55;;;;;;;;;;5027721;28;20030;-64
2021/09/29 01:01:55;;;;;;;7.90;2.73;;;;;;;;;;5043363;28;20056;-63
2021/09/29 01:04:22;;;;;;;14.80;2.90;;;;;;;;;;5033572;28;20340;-62
2021/09/29 01:06:53;;;;;;;8.52;2.58;;;;;;;;;;5044544;28;20045;-59
2021/09/29 01:09:24;;;;;;;5.40;2.30;;;;;;;;;;5041179;28;20034;-58
2021/09/29 01:11:59;;;;;;;9.60;3.10;;;;;;;;;;5043992;28;20051;-64
2021/09/29 01:14:30;;;;;;;7.32;2.70;;;;;;;;;;5042602;28;20050;-62
2021/09/29 01:16:57;;;;;;;14.15;3.10;;;;;;;;;;5044063;28;20115;-59
2021/09/29 01:19:30;;;;;;;9.30;2.80;;;;;;;;;;5040250;28;20069;-59
2021/09/29 01:22:02;;;;;;;10.65;3.50;;;;;;;;;;5043665;28;20038;-64
2021/09/29 01:24:36;;;;;;;10.88;3.00;;;;;;;;;;5042337;28;20041;-55
2021/09/29 01:27:04;;;;;;;8.48;2.60;;;;;;;;;;5044080;28;20034;-58
2021/09/29 01:29:31;;;;;;;12.25;3.47;;;;;;;;;;5069334;28;20032;-59
2021/09/29 01:32:01;;;;;;;9.25;2.78;;;;;;;;;;5029628;28;20089;-57
2021/09/29 01:34:28;;;;;;;11.98;3.13;;;;;;;;;;5038065;28;20033;-57
2021/09/29 01:36:55;;;;;;;8.93;2.97;;;;;;;;;;5058864;28;20111;-64
2021/09/29 01:39:25;;;;;;;9.15;3.30;;;;;;;;;;5061488;28;20049;-63
2021/09/29 01:42:02;;;;;;;10.93;3.13;;;;;;;;;;5025490;28;20041;-61
2021/09/29 01:44:31;;;;;;;7.60;3.00;;;;;;;;;;5043809;28;20137;-64
2021/09/29 01:46:58;;;;;;;9.13;3.00;;;;;;;;;;5037328;28;20037;-61
2021/09/29 01:49:28;;;;;;;10.13;2.88;;;;;;;;;;5043540;28;20049;-63
2021/09/29 01:51:57;;;;;;;13.38;3.40;;;;;;;;;;5041057;28;20048;-64
2021/09/29 01:54:25;;;;;;;10.43;3.58;;;;;;;;;;5044554;28;20037;-61
2021/09/29 01:56:52;;;;;;;9.60;3.42;;;;;;;;;;5031103;28;20084;-64
2021/09/29 01:59:18;;;;;;;9.23;2.97;;;;;;;;;;5024501;28;20122;-65
2021/09/29 02:01:48;;;;;;;9.32;2.95;;;;;;;;;;5023659;28;20050;-61
2021/09/29 02:04:18;;;;;;;7.60;3.00;;;;;;;;;;5021203;28;20044;-60
2021/09/29 02:06:45;;;;;;;8.48;3.00;;;;;;;;;;5025662;28;20037;-64
2021/09/29 02:09:11;;;;;;;10.48;3.13;;;;;;;;;;5042214;28;20041;-61
2021/09/29 02:11:38;;;;;;;10.20;3.05;;;;;;;;;;5039319;28;20138;-59
2021/09/29 02:14:06;;;;;;;11.77;2.75;;;;;;;;;;5039463;28;20047;-63
2021/09/29 02:16:32;;;;;;;7.63;3.08;;;;;;;;;;5041617;28;20041;-62
2021/09/29 02:19:00;;;;;;;10.98;3.25;;;;;;;;;;5062415;28;20056;-62
2021/09/29 02:21:27;;;;;;;11.57;3.17;;;;;;;;;;5061512;28;20048;-60
2021/09/29 02:23:54;;;;;;;10.10;3.05;;;;;;;;;;5039787;28;20029;-63
2021/09/29 02:26:20;;;;;;;8.82;3.00;;;;;;;;;;5044431;28;20045;-62
2021/09/29 02:28:46;;;;;;;11.98;3.30;;;;;;;;;;5037781;28;20119;-63
2021/09/29 02:31:13;;;;;;;11.98;3.38;;;;;;;;;;5043992;28;20041;-61
2021/09/29 02:33:40;;;;;;;10.85;2.88;;;;;;;;;;5038885;28;20121;-62
2021/09/29 02:36:08;;;;;;;13.43;3.65;;;;;;;;;;5043867;28;20033;-62
2021/09/29 02:38:34;;;;;;;8.52;2.80;;;;;;;;;;5041584;28;20053;-61
2021/09/29 02:41:03;;;;;;;10.52;3.65;;;;;;;;;;5038263;28;20038;-61
2021/09/29 02:43:29;;;;;;;;;;;;;;;;;;5034472;28;20041;-63
2021/09/29 02:45:56;;;;;;;11.23;3.22;;;;;;;;;;5056548;28;19925;-62
2021/09/29 02:48:23;;;;;;;6.75;2.63;;;;;;;;;;5035227;28;20092;-61
2021/09/29 02:50:50;;;;;;;9.98;3.03;;;;;;;;;;5034663;28;20108;-57
2021/09/29 02:53:18;;;;;;;13.50;2.97;;;;;;;;;;5017485;28;20030;-57
2021/09/29 02:55:45;;;;;;;9.83;3.10;;;;;;;;;;5021213;28;20045;-57
2021/09/29 02:58:11;;;;;;;8.98;3.20;;;;;;;;;;5020249;28;20364;-58
2021/09/29 03:00:40;;;;;;;8.45;3.05;;;;;;;;;;5048746;28;20041;-62
2021/09/29 03:03:06;;;;;;;;;;;;;;;;;;5056494;28;20051;-60
2021/09/29 03:05:33;;;;;;;8.80;3.28;;;;;;;;;;5056478;28;19936;-57
2021/09/29 03:07:59;;;;;;;10.68;2.75;;;;;;;;;;5060039;28;20081;-58
2021/09/29 03:10:27;;;;;;;9.50;3.10;;;;;;;;;;5033164;28;20065;-57
2021/09/29 03:12:54;;;;;;;6.78;2.92;;;;;;;;;;5050516;28;20045;-59
2021/09/29 03:15:20;;;;;;;8.02;3.70;;;;;;;;;;5062560;28;20123;-54
2021/09/29 03:17:47;;;;;;;8.10;3.08;;;;;;;;;;5038861;28;20045;-58
2021/09/29 03:20:13;;;;;;;10.95;3.35;;;;;;;;;;5025130;28;20058;-58
2021/09/29 03:22:40;;;;;;;8.45;2.90;;;;;;;;;;5021681;28;20128;-58
2021/09/29 03:25:08;;;;;;;9.25;3.00;;;;;;;;;;5028848;28;20049;-62
2021/09/29 03:27:36;;;;;;;8.45;3.40;;;;;;;;;;5045698;28;20063;-54
2021/09/29 03:30:03;;;;;;;9.27;3.08;;;;;;;;;;5049028;28;20088;-58
2021/09/29 03:32:50;;;;;;;8.27;3.20;;;;;;;;;;5071532;28;20045;-59
2021/09/29 03:35:16;;;;;;;9.90;2.90;;;;;;;;;;5040516;28;20041;-60
2021/09/29 03:37:43;;;;;;;7.35;3.20;;;;;;;;;;5059658;28;20037;-54
2021/09/29 03:40:11;;;;;;;9.63;3.20;;;;;;;;;;5061193;28;20033;-54
2021/09/29 03:42:41;;;;;;;11.37;3.60;;;;;;;;;;5034635;28;20038;-56
2021/09/29 03:45:08;;;;;;;9.15;2.88;;;;;;;;;;5023300;28;20110;-59
2021/09/29 03:47:35;;;;;;;9.95;2.83;;;;;;;;;;5029883;28;20042;-53
2021/09/29 03:50:01;;;;;;;9.95;2.97;;;;;;;;;;5021361;28;20034;-59
2021/09/29 03:52:28;;;;;;;10.05;3.05;;;;;;;;;;5024794;28;20042;-55
2021/09/29 03:54:55;;;;;;;12.27;3.13;;;;;;;;;;5005900;28;20124;-60
2021/09/29 03:57:21;;;;;;;11.07;3.13;;;;;;;;;;5038086;28;20107;-61
2021/09/29 03:59:50;;;;;;;7.88;3.00;;;;;;;;;;5040022;28;20030;-61
2021/09/29 04:02:19;;;;;;;9.85;3.60;;;;;;;;;;5023264;28;20038;-52
2021/09/29 04:04:46;;;;;;;7.57;2.83;;;;;;;;;;5024861;28;20045;-54
2021/09/29 04:07:12;;;;;;;7.35;3.05;;;;;;;;;;5037071;28;20037;-60
2021/09/29 04:09:39;;;;;;;6.93;2.85;;;;;;;;;;5026084;28;20042;-61
2021/09/29 04:12:20;;;;;;;9.80;3.00;;;;;;;;;;5034527;28;20029;-60
2021/09/29 04:14:47;;;;;;;8.35;3.25;;;;;;;;;;5042074;28;20037;-58
2021/09/29 04:17:15;;;;;;;9.18;2.83;;;;;;;;;;5042973;28;20048;-61
2021/09/29 04:19:41;;;;;;;5.17;2.60;;;;;;;;;;5043355;28;20034;-57
2021/09/29 04:22:10;;;;;;;9.15;2.60;;;;;;;;;;5036598;28;20045;-57
2021/09/29 04:24:36;;;;;;;12.00;3.03;;;;;;;;;;5035850;28;20049;-57
2021/09/29 04:27:03;;;;;;;7.43;3.03;;;;;;;;;;5041867;28;20041;-58
2021/09/29 04:29:29;;;;;;;13.48;3.22;;;;;;;;;;5061298;28;20045;-56
2021/09/29 04:31:56;;;;;;;11.07;3.10;;;;;;;;;;5039450;28;20041;-58
2021/09/29 04:34:24;;;;;;;10.70;3.20;;;;;;;;;;5042766;28;20114;-55
2021/09/29 04:36:50;;;;;;;10.17;2.67;;;;;;;;;;5040618;28;20033;-55
2021/09/29 04:39:17;;;;;;;11.90;3.28;;;;;;;;;;5041254;28;20274;-55
2021/09/29 04:41:44;;;;;;;7.65;2.30;;;;;;;;;;5037764;28;20049;-55
2021/09/29 04:44:10;;;;;;;6.93;2.58;;;;;;;;;;5021595;28;20034;-60
2021/09/29 04:46:37;;;;;;;7.85;2.50;;;;;;;;;;5013824;28;20103;-53
2021/09/29 04:49:03;;;;;;;10.23;2.60;;;;;;;;;;4999103;28;20135;-53
2021/09/29 04:51:33;;;;;;;9.18;2.45;;;;;;;;;;5022546;28;20046;-57
2021/09/29 04:54:00;;;;;;;5.50;2.63;;;;;;;;;;5034416;28;20030;-58
2021/09/29 04:56:26;;;;;;;7.20;2.47;;;;;;;;;;5044351;28;20029;-60
2021/09/29 04:58:53;;;;;;;7.75;2.65;;;;;;;;;;5050235;28;20044;-54
2021/09/29 05:01:38;;;;;;;9.52;2.83;;;;;;;;;;5052684;28;20059;-58
2021/09/29 05:04:09;;;;;;;7.47;2.72;;;;;;;;;;5057631;28;20029;-57
2021/09/29 05:06:40;;;;;;;12.55;2.63;;;;;;;;;;5079907;28;20126;-55
2021/09/29 05:09:08;;;;;;;12.10;3.72;;;;;;;;;;5074602;28;20041;-58
2021/09/29 05:11:35;;;;;;;10.30;3.53;;;;;;;;;;5068371;28;20033;-58
2021/09/29 05:14:05;;;;;;;13.85;2.83;;;;;;;;;;5045683;28;20305;-55
2021/09/29 05:16:32;;;;;;;6.53;2.75;;;;;;;;;;5064206;28;20060;-56
2021/09/29 05:18:58;;;;;;;8.85;2.45;;;;;;;;;;5060861;28;20037;-56
2021/09/29 05:21:26;;;;;;;9.07;3.22;;;;;;;;;;5060687;28;20033;-57
2021/09/29 05:23:54;;;;;;;8.77;2.70;;;;;;;;;;5058773;28;20167;-52
2021/09/29 05:26:21;;;;;;;7.22;2.55;;;;;;;;;;5061108;28;20068;-56
2021/09/29 05:28:51;;;;;;;9.73;2.35;;;;;;;;;;5066497;28;20052;-59
2021/09/29 05:31:19;;;;;;;4.70;1.92;;;;;;;;;;5060970;28;20104;-58
2021/09/29 05:33:45;;;;;;;5.83;1.70;;;;;;;;;;5062818;28;20044;-56
2021/09/29 05:36:12;;;;;;;10.32;2.33;;;;;;;;;;5052326;28;20285;-56
2021/09/29 05:38:40;;;;;;;5.18;2.20;;;;;;;;;;5063810;28;20053;-57
2021/09/29 05:41:13;;;;;;;6.85;2.25;;;;;;;;;;5053609;28;20049;-58
2021/09/29 05:43:41;;;;;;;9.25;3.40;;;;;;;;;;5063523;28;20040;-61
2021/09/29 05:46:08;;;;;;;7.45;2.67;;;;;;;;;;5058706;28;20055;-60
2021/09/29 05:48:35;;;;;;;6.57;2.03;;;;;;;;;;5061059;28;20093;-62
2021/09/29 05:51:19;;;;;;;4.13;1.98;;;;;;;;;;5045947;28;20152;-61
2021/09/29 05:53:45;;;;;;;7.32;2.20;;;;;;;;;;5064030;28;20077;-58
2021/09/29 05:56:13;;;;;;;5.95;2.30;;;;;;;;;;5058678;28;20053;-55
2021/09/29 05:58:41;;;;;;;5.68;1.85;;;;;;;;;;5036660;28;20052;-55
2021/09/29 06:01:09;;;;;;;6.35;2.40;;;;;;;;;;5035111;28;20038;-56
2021/09/29 06:03:35;;;;;;;7.65;2.35;;;;;;;;;;5058114;28;20044;-59
2021/09/29 06:06:02;;;;;;;6.03;2.20;;;;;;;;;;5048387;28;20060;-58
2021/09/29 06:08:28;;;;;;;6.93;2.10;;;;;;;;;;5059742;28;20044;-58
2021/09/29 06:10:58;;;;;;;8.10;2.13;;;;;;;;;;5037856;28;20038;-56
2021/09/29 06:13:25;;;;;;;7.53;2.33;;;;;;;;;;5041412;28;20126;-62
2021/09/29 06:15:53;;;;;;;7.28;2.03;;;;;;;;;;5038132;28;20048;-60
2021/09/29 06:18:20;;;;;;;4.57;1.77;;;;;;;;;;5043737;28;20109;-62
2021/09/29 06:20:48;;;;;;;10.73;2.10;;;;;;;;;;5044690;28;20036;-57
2021/09/29 06:23:15;;;;;;;5.75;2.08;;;;;;;;;;5056127;28;20049;-59
2021/09/29 06:25:42;;;;;;;7.22;2.22;;;;;;;;;;5041531;28;20041;-54
2021/09/29 06:28:09;;;;;;;6.35;1.85;;;;;;;;;;5036531;28;20053;-57
2021/09/29 06:30:35;;;;;;;6.00;2.03;;;;;;;;;;5044226;28;20054;-58
2021/09/29 06:33:04;;;;;;;6.68;2.00;;;;;;;;;;5038130;28;20041;-62
2021/09/29 06:35:30;;;;;;;4.07;1.90;;;;;;;;;;5046009;28;20053;-60
2021/09/29 06:37:57;;;;;;;5.00;1.70;;;;;;;;;;5040568;28;20041;-55
2021/09/29 06:40:24;;;;;;;8.75;2.13;;;;;;;;;;5028936;28;20057;-62
2021/09/29 06:42:50;;;;;;;4.90;1.70;;;;;;;;;;5042660;28;20152;-58
2021/09/29 06:45:17;;;;;;;5.90;1.90;;;;;;;;;;5026596;28;20066;-58
2021/09/29 06:47:45;;;;;;;6.72;2.00;;;;;;;;;;5043285;28;20034;-54
2021/09/29 06:50:14;;;;;;;9.45;2.40;;;;;;;;;;5056654;28;20033;-61
2021/09/29 06:55:15;;;;;;;9.65;2.08;;;;;;;;;;5045920;28;19921;-55
2021/09/29 06:57:42;;;;;;;9.73;2.03;;;;;;;;;;5041754;28;20118;-56
2021/09/29 07:00:09;;;;;;;7.63;2.25;;;;;;;;;;5046069;28;20122;-56
2021/09/29 07:02:41;;;;;;;9.13;2.28;;;;;;;;;;5046695;28;20041;-57
2021/09/29 07:05:08;;;;;;;3.65;1.80;;;;;;;;;;5065502;28;20114;-54
2021/09/29 07:07:37;;;;;;;8.43;1.73;;;;;;;;;;5047535;28;20041;-58
2021/09/29 07:10:04;;;;;;;6.75;1.60;;;;;;;;;;5044286;28;20060;-56
2021/09/29 07:12:38;;;;;;;4.50;1.60;;;;;;;;;;5083773;28;20080;-54
2021/09/29 07:15:05;;;;;;;4.45;1.48;;;;;;;;;;5063552;28;20051;-57
2021/09/29 07:17:32;;;;;;;4.95;1.77;;;;;;;;;;5048689;28;20040;-55
2021/09/29 07:19:59;;;;;;;7.45;2.05;;;;;;;;;;5062209;28;20045;-60
2021/09/29 07:22:26;;;;;;;6.10;1.67;;;;;;;;;;5065055;28;20036;-62
2021/09/29 07:24:55;;;;;;;5.40;2.03;;;;;;;;;;5075085;28;20085;-59
2021/09/29 07:27:23;;;;;;;4.32;1.65;;;;;;;;;;5068426;28;20036;-62
2021/09/29 07:29:50;;;;;;;5.80;1.83;;;;;;;;;;5081811;28;20040;-59
2021/09/29 07:32:18;;;;;;;5.53;1.80;;;;;;;;;;5068796;28;20057;-57
2021/09/29 07:34:45;;;;;;;6.97;1.80;;;;;;;;;;5061178;28;20048;-57
2021/09/29 07:37:11;;;;;;;7.03;2.15;;;;;;;;;;5044531;28;20047;-60
2021/09/29 07:39:38;;;;;;;8.18;2.67;;;;;;;;;;5040978;28;20091;-59
2021/09/29 07:42:10;;;;;;;4.53;1.92;;;;;;;;;;5057940;28;20095;-61
2021/09/29 07:44:37;;;;;;;8.57;2.53;;;;;;;;;;5042379;28;20048;-60
2021/09/29 07:47:03;;;;;;;8.23;2.20;;;;;;;;;;5046631;28;20034;-62
2021/09/29 07:49:30;;;;;;;7.88;2.38;;;;;;;;;;5042182;28;20041;-62
2021/09/29 07:51:59;;;;;;;8.40;2.38;;;;;;;;;;5065527;28;20040;-63
2021/09/29 07:54:27;;;;;;;5.43;1.85;;;;;;;;;;5064033;28;20110;-62
2021/09/29 07:56:53;;;;;;;9.83;1.83;;;;;;;;;;5041420;28;20033;-60
2021/09/29 07:59:22;;;;;;;5.35;1.98;;;;;;;;;;5047083;28;20265;-60
2021/09/29 08:01:53;;;;;;;5.80;1.52;;;;;;;;;;5044095;28;20098;-60
2021/09/29 08:04:22;;;;;;;6.45;2.10;;;;;;;;;;5046516;28;20032;-62
2021/09/29 08:06:48;;;;;;;;;;;;;;;;;;5046821;28;20043;-60
2021/09/29 08:09:15;;;;;;;4.45;1.83;;;;;;;;;;5026220;28;19923;-62
2021/09/29 08:11:52;;;;;;;4.38;1.77;;;;;;;;;;5033331;28;20052;-63
2021/09/29 08:14:19;;;;;;;6.30;1.80;;;;;;;;;;5044717;28;20048;-62
2021/09/29 08:16:47;;;;;;;5.57;1.95;;;;;;;;;;5059401;28;28921;-60
2021/09/29 08:19:14;;;;;;;4.53;2.05;;;;;;;;;;5055560;28;20060;-63
2021/09/29 08:21:43;;;;;;;5.43;1.80;;;;;;;;;;5041823;28;20029;-63
2021/09/29 08:24:12;;;;;;;3.95;1.80;;;;;;;;;;5051315;28;20162;-63
2021/09/29 08:26:51;;;;;;;7.80;2.22;;;;;;;;;;5047098;28;20041;-62
2021/09/29 08:29:32;;;;;;;5.82;1.80;;;;;;;;;;5039370;28;20029;-61
2021/09/29 08:32:19;;;;;;;4.65;1.70;;;;;;;;;;5029216;28;20033;-61
2021/09/29 08:34:51;;;;;;;4.72;1.70;;;;;;;;;;5051905;28;20117;-60
2021/09/29 08:37:29;;;;;;;7.93;2.30;;;;;;;;;;5067579;28;20045;-64
2021/09/29 08:40:05;;;;;;;6.35;1.95;;;;;;;;;;5039813;28;20048;-60
2021/09/29 08:42:43;;;;;;;4.18;1.65;;;;;;;;;;5052186;28;20069;-64
2021/09/29 08:45:13;;;;;;;4.78;2.10;;;;;;;;;;5037311;28;20033;-65
2021/09/29 08:47:48;;;;;;;3.78;1.55;;;;;;;;;;5042261;28;20045;-64
2021/09/29 08:50:23;;;;;;;3.45;1.60;;;;;;;;;;5042455;28;20040;-58
2021/09/29 08:56:07;;;;;;;3.40;1.80;;;;;;;;;;5004087;28;20057;-59
2021/09/29 09:15:52;;;;;;;5.13;1.60;;;;;;;;;;5038798;28;20051;-62
2021/09/29 09:18:21;;;;;;;3.83;1.83;;;;;;;;;;5039769;28;20047;-59
2021/09/29 09:20:54;;;;;;;7.57;2.08;;;;;;;;;;5051662;28;20069;-63
2021/09/29 09:23:22;;;;;;;3.90;1.83;;;;;;;;;;5070413;28;20132;-62
2021/09/29 09:25:48;;;;;;;3.73;1.77;;;;;;;;;;5059191;28;20169;-63
2021/09/29 09:28:27;;;;;;;5.00;2.00;;;;;;;;;;5055134;28;20029;-63
2021/09/29 09:30:57;;;;;;;6.40;1.95;;;;;;;;;;5075334;28;20150;-62
2021/09/29 09:33:24;;;;;;;4.22;2.08;;;;;;;;;;5036092;28;20033;-61
2021/09/29 09:35:52;;;;;;;4.30;2.00;;;;;;;;;;5053099;28;20048;-57
2021/09/29 09:38:22;;;;;;;7.25;3.15;;;;;;;;;;5045715;28;20054;-62
2021/09/29 09:41:04;;;;;;;4.97;2.30;;;;;;;;;;5061651;28;20374;-61
2021/09/29 09:43:31;;;;;;;5.25;1.77;;;;;;;;;;5040675;28;20037;-64
2021/09/29 09:46:01;;;;;;;3.88;1.90;;;;;;;;;;5036820;28;20036;-62
2021/09/29 09:48:29;;;;;;;2.90;1.50;;;;;;;;;;5059918;28;20037;-61
2021/09/29 09:51:07;;;;;;;4.00;1.80;;;;;;;;;;5040771;28;20037;-58
2021/09/29 09:53:34;;;;;;;7.07;2.00;;;;;;;;;;5045991;28;20060;-60
2021/09/29 09:56:11;;;;;;;4.88;1.63;;;;;;;;;;5043230;28;20041;-60
2021/09/29 09:58:46;;;;;;;4.75;1.60;;;;;;;;;;5046208;28;20036;-58
2021/09/29 10:01:19;;;;;;;3.53;1.58;;;;;;;;;;5042960;28;20077;-61
2021/09/29 10:03:46;;;;;;;4.82;1.63;;;;;;;;;;5045873;28;20072;-62
2021/09/29 10:06:14;;;;;;;3.42;1.52;;;;;;;;;;5029068;28;20041;-63
2021/09/29 10:08:44;;;;;;;7.93;1.80;;;;;;;;;;5024831;28;20041;-61
2021/09/29 10:11:19;;;;;;;3.75;1.70;;;;;;;;;;5025582;28;20061;-62
2021/09/29 10:14:10;;;;;;;2.63;1.42;;;;;;;;;;5046588;28;20055;-61
2021/09/29 10:27:52;;;;;;;5.72;1.40;;;;;;;;;;5053557;28;20037;-61
2021/09/29 10:30:25;;;;;;;2.85;1.20;;;;;;;;;;5066034;28;20036;-60
2021/09/29 10:32:57;;;;;;;3.38;1.20;;;;;;;;;;5078503;28;20166;-63
2021/09/29 10:35:42;;;;;;;2.47;1.40;;;;;;;;;;5056204;28;20060;-63
2021/09/29 10:41:23;;;;;;;2.85;1.20;;;;;;;;;;5049418;28;20039;-62
2021/09/29 10:44:04;;;;;;;2.10;1.10;;;;;;;;;;5047354;28;20037;-63
2021/09/29 10:46:37;;;;;;;4.20;1.00;;;;;;;;;;5026906;28;20048;-58
2021/09/29 11:06:21;;;;;;;5.65;1.42;;;;;;;;;;5047131;28;20041;-60
2021/09/29 11:11:59;;;;;;;1.73;0.60;;;;;;;;;;5039681;28;20037;-59
2021/09/29 11:30:52;;;;;;;3.60;0.63;;;;;;;;;;5083928;28;20036;-60
2021/09/29 11:33:29;;;;;;;1.50;0.63;;;;;;;;;;5054362;28;20059;-59
2021/09/29 11:36:04;;;;;;;3.08;0.60;;;;;;;;;;5046070;28;20040;-60
2021/09/29 12:09:29;;;;;;;1.13;0.70;;;;;;;;;;5043240;28;20048;-59
2021/09/29 12:12:10;;;;;;;4.25;1.05;;;;;;;;;;5037915;28;20069;-60
2021/09/29 12:14:36;;;;;;;2.20;1.05;;;;;;;;;;5041801;28;20029;-60
2021/09/29 12:17:05;;;;;;;1.90;0.90;;;;;;;;;;5044871;28;20045;-58
2021/09/29 12:19:36;;;;;;;6.03;0.93;;;;;;;;;;5044756;28;20044;-61
2021/09/29 12:22:06;;;;;;;3.20;1.00;;;;;;;;;;5041964;28;20065;-59
2021/09/29 12:24:36;;;;;;;2.92;1.20;;;;;;;;;;5044648;28;20034;-61
2021/09/29 12:27:04;;;;;;;4.15;1.23;;;;;;;;;;5039082;28;20052;-59
2021/09/29 12:29:34;;;;;;;6.47;1.30;;;;;;;;;;5045197;28;20048;-59
2021/09/29 12:32:17;;;;;;;3.67;1.20;;;;;;;;;;5057081;28;20041;-61
2021/09/29 12:35:01;;;;;;;6.85;1.52;;;;;;;;;;5044053;28;20115;-60
2021/09/29 12:37:28;;;;;;;9.60;1.60;;;;;;;;;;5039012;28;20053;-60
2021/09/29 12:39:55;;;;;;;5.88;1.23;;;;;;;;;;5041889;28;20116;-58
2021/09/29 12:42:28;;;;;;;4.32;1.40;;;;;;;;;;5036815;28;20044;-58
2021/09/29 12:44:55;;;;;;;3.30;0.98;;;;;;;;;;5040770;28;20037;-60
2021/09/29 12:47:26;;;;;;;4.47;1.15;;;;;;;;;;5041144;28;20037;-60
2021/09/29 12:49:54;;;;;;;2.17;0.80;;;;;;;;;;5055113;28;20036;-60
2021/09/29 12:52:26;;;;;;;;;;;;;;;;;;5061790;28;20073;-60
2021/09/29 12:54:52;;;;;;;5.80;0.93;;;;;;;;;;5046206;28;19917;-60
2021/09/29 12:57:19;;;;;;;3.72;0.90;;;;;;;;;;5050595;28;20044;-60
2021/09/29 12:59:45;;;;;;;3.60;0.85;;;;;;;;;;5066143;28;20036;-59
2021/09/29 13:02:13;;;;;;;5.78;0.88;;;;;;;;;;5067199;28;20139;-60
2021/09/29 13:04:41;;;;;;;4.03;0.88;;;;;;;;;;5064564;28;20126;-60
2021/09/29 13:07:07;;;;;;;7.05;0.98;;;;;;;;;;5045286;28;20033;-60
2021/09/29 13:09:34;;;;;;;3.95;0.98;;;;;;;;;;5053929;28;20047;-60
2021/09/29 13:12:01;;;;;;;7.03;0.70;;;;;;;;;;5058828;28;20043;-60
2021/09/29 13:14:28;;;;;;;1.50;0.47;;;;;;;;;;5064140;28;20037;-60
2021/09/29 13:16:54;;;;;;;7.30;0.63;;;;;;;;;;5063663;28;20118;-60
2021/09/29 13:19:23;;;;;;;4.55;0.60;;;;;;;;;;5060522;28;20055;-59
2021/09/29 13:21:56;;;;;;;3.92;0.57;;;;;;;;;;5064057;28;20118;-60
2021/09/29 13:24:30;;;;;;;2.30;0.40;;;;;;;;;;5045824;28;20045;-59
2021/09/29 13:37:59;;;;;;;2.38;0.65;;;;;;;;;;5008506;28;20043;-60
2021/09/29 13:40:30;;;;;;;2.60;0.80;;;;;;;;;;5062906;28;20045;-60
2021/09/29 13:42:57;;;;;;;3.53;0.60;;;;;;;;;;5025746;28;20074;-59
2021/09/29 13:45:24;;;;;;;7.83;0.60;;;;;;;;;;5023944;28;20055;-59
2021/09/29 13:47:50;;;;;;;3.70;0.63;;;;;;;;;;5027240;28;20041;-59
2021/09/29 13:50:19;;;;;;;2.53;0.60;;;;;;;;;;5024141;28;20057;-59
2021/09/29 13:52:46;;;;;;;4.20;0.73;;;;;;;;;;5025855;28;20083;-60
2021/09/29 13:55:16;;;;;;;3.65;0.93;;;;;;;;;;5037521;28;20045;-60
2021/09/29 13:57:48;;;;;;;2.60;0.77;;;;;;;;;;5046957;28;20036;-60
2021/09/29 14:00:28;;;;;;;7.50;1.05;;;;;;;;;;5056835;28;20042;-60
2021/09/29 14:03:14;;;;;;;0.68;0.40;;;;;;;;;;5026060;28;20044;-60
2021/09/29 14:14:42;;;;;;;3.08;0.52;;;;;;;;;;5026108;28;20142;-60
2021/09/29 14:30:52;;;;;;;6.75;0.43;;;;;;;;;;5053292;28;20156;-59
2021/09/29 14:33:22;;;;;;;4.00;0.50;;;;;;;;;;5065332;28;20051;-58
2021/09/29 14:35:49;;;;;;;2.97;0.70;;;;;;;;;;5044170;28;20048;-60
2021/09/29 14:38:15;;;;;;;4.45;0.52;;;;;;;;;;5045423;28;20130;-59
2021/09/29 14:40:50;;;;;;;3.08;0.43;;;;;;;;;;5056548;28;20117;-59
2021/09/29 14:43:17;;;;;;;2.55;0.60;;;;;;;;;;5065433;28;20024;-59
2021/09/29 14:45:43;;;;;;;3.65;0.63;;;;;;;;;;5059328;28;20141;-58
2021/09/29 14:48:11;;;;;;;4.10;0.50;;;;;;;;;;5045051;28;20087;-60
2021/09/29 14:50:43;;;;;;;0.83;0.47;;;;;;;;;;5060470;28;20056;-59
2021/09/29 14:53:09;;;;;;;4.03;0.70;;;;;;;;;;5059444;28;20279;-59
2021/09/29 14:55:36;;;;;;;7.65;0.98;;;;;;;;;;5048075;28;20041;-58
2021/09/29 14:58:04;;;;;;;7.35;0.90;;;;;;;;;;5059318;28;20044;-58
2021/09/29 15:00:32;;;;;;;8.98;0.90;;;;;;;;;;5042692;28;20056;-61
2021/09/29 15:02:59;;;;;;;1.60;0.60;;;;;;;;;;5033358;28;20053;-59
2021/09/29 15:05:28;;;;;;;7.22;0.77;;;;;;;;;;5033769;28;20037;-59
2021/09/29 15:07:55;;;;;;;0.98;0.57;;;;;;;;;;5056308;28;20040;-60
2021/09/29 15:10:21;;;;;;;2.60;0.50;;;;;;;;;;5062490;28;20040;-59
2021/09/29 15:12:48;;;;;;;8.55;1.23;;;;;;;;;;5069031;28;20058;-59
2021/09/29 15:15:20;;;;;;;3.05;0.70;;;;;;;;;;5054330;28;20048;-58
2021/09/29 15:17:50;;;;;;;2.38;0.55;;;;;;;;;;5041069;28;20028;-56
2021/09/29 15:20:21;;;;;;;6.70;0.65;;;;;;;;;;5049788;28;20029;-57
2021/09/29 15:23:14;;;;;;;7.07;0.80;;;;;;;;;;5063129;28;20036;-59
2021/09/29 15:31:50;;;;;;;4.90;0.60;;;;;;;;;;5064883;28;20056;-56
2021/09/29 15:48:06;;;;;;;2.67;0.57;;;;;;;;;;5035357;28;20030;-59
2021/09/29 15:50:41;;;;;;;5.18;0.60;;;;;;;;;;5037642;28;20080;-58
2021/09/29 15:53:17;;;;;;;6.32;0.90;;;;;;;;;;5039242;28;20101;-61
2021/09/29 15:55:50;;;;;;;3.75;0.50;;;;;;;;;;5033528;28;20054;-61
2021/09/29 16:00:59;;;;;;;3.67;0.68;;;;;;;;;;5050019;28;20122;-59
2021/09/29 16:06:22;;;;;;;6.45;1.98;;;;;;;;;;5039024;28;20140;-61
2021/09/29 16:12:06;;;;;;;0.95;0.63;;;;;;;;;;5019450;28;20110;-60
2021/09/29 16:17:38;;;;;;;3.65;0.80;;;;;;;;;;5040455;28;20060;-62
2021/09/29 16:31:21;;;;;;;2.15;0.75;;;;;;;;;;4999488;28;20082;-59
2021/09/29 16:33:59;;;;;;;2.17;0.90;;;;;;;;;;5035775;28;20057;-61
2021/09/29 16:36:26;;;;;;;4.45;0.60;;;;;;;;;;5015002;28;20302;-60
2021/09/29 16:38:52;;;;;;;3.30;1.10;;;;;;;;;;5017941;28;20076;-60
2021/09/29 16:41:21;;;;;;;2.00;0.65;;;;;;;;;;5020006;28;20052;-59
2021/09/29 16:43:49;;;;;;;3.47;0.73;;;;;;;;;;5030275;28;20073;-63
2021/09/29 16:46:19;;;;;;;6.38;0.80;;;;;;;;;;5014820;28;20061;-60
2021/09/29 16:48:46;;;;;;;2.30;0.60;;;;;;;;;;5019925;28;20176;-62
2021/09/29 16:51:21;;;;;;;5.30;0.70;;;;;;;;;;5048315;28;20048;-58
2021/09/29 16:53:49;;;;;;;4.82;1.08;;;;;;;;;;5035128;28;20088;-63
2021/09/29 16:56:16;;;;;;;3.53;1.00;;;;;;;;;;5031670;28;20056;-62
2021/09/29 16:58:46;;;;;;;1.73;0.68;;;;;;;;;;5031830;28;20044;-62
2021/09/29 17:01:16;;;;;;;1.83;0.50;;;;;;;;;;5036235;28;20103;-62
2021/09/29 17:03:43;;;;;;;4.03;0.90;;;;;;;;;;5046535;28;20063;-61
2021/09/29 17:06:10;;;;;;;3.97;0.80;;;;;;;;;;5027262;28;20053;-62
2021/09/29 17:08:37;;;;;;;2.33;0.60;;;;;;;;;;5053145;28;20042;-61
2021/09/29 17:11:08;;;;;;;1.13;0.40;;;;;;;;;;5033257;28;20057;-62
2021/09/29 17:13:38;;;;;;;5.63;0.73;;;;;;;;;;5046141;28;20040;-63
2021/09/29 17:16:05;;;;;;;2.25;0.60;;;;;;;;;;5031928;28;20131;-64
2021/09/29 17:18:33;;;;;;;3.38;0.80;;;;;;;;;;5035828;28;20138;-59
2021/09/29 17:21:00;;;;;;;2.67;0.55;;;;;;;;;;5035069;28;20086;-61
2021/09/29 17:23:27;;;;;;;3.58;0.70;;;;;;;;;;5031123;28;20050;-61
2021/09/29 17:25:54;;;;;;;5.18;1.35;;;;;;;;;;5036135;28;20037;-61
2021/09/29 17:28:21;;;;;;;1.90;0.68;;;;;;;;;;5027097;28;20055;-60
2021/09/29 17:30:51;;;;;;;2.13;0.60;;;;;;;;;;5035500;28;20048;-61
2021/09/29 17:36:14;;;;;;;5.60;0.57;;;;;;;;;;5027723;28;20072;-59
2021/09/29 17:38:58;;;;;;;2.83;0.52;;;;;;;;;;5030816;28;20064;-61
2021/09/29 17:52:31;;;;;;;1.70;0.70;;;;;;;;;;4985059;28;20045;-61
2021/09/29 17:54:58;;;;;;;2.85;0.85;;;;;;;;;;5040665;28;20073;-59
2021/09/29 17:57:26;;;;;;;4.13;0.68;;;;;;;;;;5038326;28;20052;-63
2021/09/29 17:59:52;;;;;;;9.27;3.30;;;;;;;;;;5035118;28;20060;-61
2021/09/29 18:02:22;;;;;;;9.82;2.72;;;;;;;;;;5040047;28;20123;-62
2021/09/29 18:04:49;;;;;;;4.72;0.93;;;;;;;;;;5042605;28;20049;-60
2021/09/29 18:07:36;;;;;;;2.97;0.63;;;;;;;;;;5038109;28;20060;-63
2021/09/29 18:10:05;;;;;;;5.05;0.80;;;;;;;;;;5043004;28;20052;-61